Time;durP1;ratioP1;P1;durP2;ratioP2;P2;SDS_P1;SDS_P2;PMS_P1;PMS_P2;Temp;Humidity;BMP_temperature;BMP_pressure;BME280_temperature;BME280_humidity;BME280_pressure;Samples;Min_cycle;Max_cycle;Signal;HPM_P1;HPM_P2
2021/04/22 00:02:15;;;;;;;;;;;20.00;52.30;;;;;;5050710;28;19920;-68
2021/04/22 00:04:41;;;;;;;;;;;19.90;52.30;;;;;;5049478;28;19917;-68
2021/04/22 00:07:06;;;;;;;;;;;20.00;52.30;;;;;;5049848;28;19923;-68
2021/04/22 00:09:32;;;;;;;;;;;19.90;52.30;;;;;;5048875;28;20529;-68
2021/04/22 00:11:57;;;;;;;;;;;19.90;52.30;;;;;;5031695;28;19916;-68
2021/04/22 00:14:22;;;;;;;;;;;19.90;52.30;;;;;;5049582;28;19923;-68
2021/04/22 00:16:48;;;;;;;;;;;20.00;52.30;;;;;;5048798;28;20311;-68
2021/04/22 00:19:13;;;;;;;;;;;20.00;52.30;;;;;;5049226;28;19955;-68
2021/04/22 00:21:39;;;;;;;;;;;20.00;52.20;;;;;;5048707;28;20614;-68
2021/04/22 00:24:05;;;;;;;;;;;19.90;52.20;;;;;;5048922;28;20531;-68
2021/04/22 00:26:30;;;;;;;;;;;19.90;52.20;;;;;;5048716;28;20519;-68
2021/04/22 00:28:55;;;;;;;;;;;19.90;52.10;;;;;;5048104;28;20401;-68
2021/04/22 00:31:21;;;;;;;;;;;19.90;52.10;;;;;;5048484;28;19931;-68
2021/04/22 00:33:46;;;;;;;;;;;19.90;52.10;;;;;;5047822;28;19924;-68
2021/04/22 00:36:13;;;;;;;;;;;19.90;52.10;;;;;;5048087;28;19923;-68
2021/04/22 00:38:39;;;;;;;;;;;19.90;52.00;;;;;;5048414;28;19951;-68
2021/04/22 00:41:04;;;;;;;;;;;19.90;52.00;;;;;;5030524;28;19945;-68
2021/04/22 00:43:29;;;;;;;;;;;19.90;52.00;;;;;;5048253;28;19917;-68
2021/04/22 00:45:55;;;;;;;;;;;19.90;52.00;;;;;;5047572;28;19956;-68
2021/04/22 00:48:21;;;;;;;;;;;19.90;52.00;;;;;;5048220;28;19924;-68
2021/04/22 00:50:46;;;;;;;;;;;19.90;51.90;;;;;;5047846;28;19987;-68
2021/04/22 00:53:12;;;;;;;;;;;19.90;51.80;;;;;;5048330;28;19923;-68
2021/04/22 00:55:37;;;;;;;;;;;19.90;51.80;;;;;;5030782;28;19924;-67
2021/04/22 00:58:03;;;;;;;;;;;19.90;51.90;;;;;;5047418;28;20514;-67
2021/04/22 01:00:32;;;;;;;;;;;19.90;51.80;;;;;;5047224;28;19956;-67
2021/04/22 01:02:58;;;;;;;;;;;19.90;51.80;;;;;;5040744;28;19923;-68
2021/04/22 01:05:27;;;;;;;;;;;19.90;52.40;;;;;;5048201;28;20007;-68
2021/04/22 01:07:53;;;;;;;;;;;19.90;51.70;;;;;;5046874;28;19921;-68
2021/04/22 01:10:18;;;;;;;;;;;19.90;51.80;;;;;;5046046;28;19932;-67
2021/04/22 01:12:44;;;;;;;;;;;19.90;51.80;;;;;;5030156;28;19921;-67
2021/04/22 01:15:11;;;;;;;;;;;19.90;51.60;;;;;;5031026;28;19917;-67
2021/04/22 01:17:36;;;;;;;;;;;19.90;51.70;;;;;;5047868;28;19916;-67
2021/04/22 01:20:05;;;;;;;;;;;19.90;51.70;;;;;;5048927;28;19982;-68
2021/04/22 01:22:31;;;;;;;;;;;19.90;51.60;;;;;;5049061;28;20445;-67
2021/04/22 01:24:56;;;;;;;;;;;19.90;51.60;;;;;;5048395;28;19925;-67
2021/04/22 01:27:22;;;;;;;;;;;19.90;51.60;;;;;;5047562;28;20310;-67
2021/04/22 01:29:47;;;;;;;;;;;19.90;51.50;;;;;;5047092;28;19931;-68
2021/04/22 01:32:13;;;;;;;;;;;19.90;51.50;;;;;;5029778;28;19921;-67
2021/04/22 01:34:38;;;;;;;;;;;19.90;51.50;;;;;;5046930;28;19920;-68
2021/04/22 01:37:04;;;;;;;;;;;19.90;51.50;;;;;;5029429;28;20686;-68
2021/04/22 01:39:29;;;;;;;;;;;19.90;51.40;;;;;;5047144;28;19971;-64
2021/04/22 01:41:54;;;;;;;;;;;19.90;51.50;;;;;;5029456;28;19921;-68
2021/04/22 01:44:20;;;;;;;;;;;19.80;51.50;;;;;;5047099;28;20455;-68
2021/04/22 01:46:45;;;;;;;;;;;19.90;51.50;;;;;;5047059;28;19921;-68
2021/04/22 01:49:11;;;;;;;;;;;19.80;51.30;;;;;;5046839;28;19921;-68
2021/04/22 01:51:36;;;;;;;;;;;19.90;51.30;;;;;;5046816;28;19959;-68
2021/04/22 01:54:02;;;;;;;;;;;19.80;51.30;;;;;;5046706;28;19925;-68
2021/04/22 01:56:27;;;;;;;;;;;19.80;51.30;;;;;;5046898;28;19924;-68
2021/04/22 01:58:53;;;;;;;;;;;19.80;51.30;;;;;;5046475;28;19947;-67
2021/04/22 02:01:18;;;;;;;;;;;19.80;51.20;;;;;;5046254;28;20326;-68
2021/04/22 02:03:44;;;;;;;;;;;19.80;51.20;;;;;;5046360;28;19924;-67
2021/04/22 02:06:10;;;;;;;;;;;19.80;51.30;;;;;;5046999;28;19917;-68
2021/04/22 02:08:36;;;;;;;;;;;19.80;51.20;;;;;;5046350;28;19916;-68
2021/04/22 02:11:02;;;;;;;;;;;19.80;51.20;;;;;;5045975;28;20640;-68
2021/04/22 02:13:28;;;;;;;;;;;19.80;51.10;;;;;;5047206;28;19976;-67
2021/04/22 02:15:54;;;;;;;;;;;19.80;51.10;;;;;;5046694;28;20378;-68
2021/04/22 02:18:19;;;;;;;;;;;19.80;51.00;;;;;;5047877;28;19917;-67
2021/04/22 02:20:45;;;;;;;;;;;19.80;51.00;;;;;;5050380;28;19920;-67
2021/04/22 02:23:12;;;;;;;;;;;19.80;51.00;;;;;;5031072;28;19963;-67
2021/04/22 02:25:38;;;;;;;;;;;19.80;51.10;;;;;;5046733;28;20380;-67
2021/04/22 02:28:03;;;;;;;;;;;19.80;51.10;;;;;;5047035;28;19920;-68
2021/04/22 02:30:30;;;;;;;;;;;19.80;51.10;;;;;;5046228;28;19921;-67
2021/04/22 02:32:55;;;;;;;;;;;19.80;51.00;;;;;;5046171;28;19928;-68
2021/04/22 02:35:22;;;;;;;;;;;19.80;51.00;;;;;;5045750;28;19920;-67
2021/04/22 02:37:48;;;;;;;;;;;19.80;51.00;;;;;;5055363;28;19927;-67
2021/04/22 02:40:14;;;;;;;;;;;19.70;50.90;;;;;;5053878;28;19916;-67
2021/04/22 02:42:40;;;;;;;;;;;19.80;51.00;;;;;;5028667;28;19923;-67
2021/04/22 02:45:09;;;;;;;;;;;19.80;51.00;;;;;;5046034;28;19916;-67
2021/04/22 02:47:35;;;;;;;;;;;19.70;50.90;;;;;;5045491;28;20292;-68
2021/04/22 02:50:00;;;;;;;;;;;19.70;51.00;;;;;;5045557;28;19977;-67
2021/04/22 02:52:26;;;;;;;;;;;19.70;50.90;;;;;;5046663;28;20003;-67
2021/04/22 02:54:51;;;;;;;;;;;19.70;50.90;;;;;;5046191;28;20601;-68
2021/04/22 02:57:17;;;;;;;;;;;19.70;50.90;;;;;;5046659;28;20326;-67
2021/04/22 02:59:42;;;;;;;;;;;19.70;50.90;;;;;;5045364;28;19944;-67
2021/04/22 03:02:07;;;;;;;;;;;19.70;50.80;;;;;;5045174;28;22164;-68
2021/04/22 03:04:33;;;;;;;;;;;19.70;50.90;;;;;;5045834;28;19916;-68
2021/04/22 03:06:58;;;;;;;;;;;19.70;50.90;;;;;;5045400;28;20542;-67
2021/04/22 03:09:24;;;;;;;;;;;19.70;50.80;;;;;;5045612;28;19927;-67
2021/04/22 03:11:49;;;;;;;;;;;19.70;50.80;;;;;;5045333;28;19963;-68
2021/04/22 03:14:15;;;;;;;;;;;19.70;50.80;;;;;;5046073;28;19936;-67
2021/04/22 03:16:40;;;;;;;;;;;19.70;50.80;;;;;;5045507;28;19921;-67
2021/04/22 03:19:06;;;;;;;;;;;19.70;50.80;;;;;;5027929;28;19975;-66
2021/04/22 03:21:31;;;;;;;;;;;19.70;50.80;;;;;;5045170;28;19917;-67
2021/04/22 03:23:56;;;;;;;;;;;19.70;50.80;;;;;;5027431;28;19920;-68
2021/04/22 03:26:22;;;;;;;;;;;19.70;50.80;;;;;;5045531;28;19917;-68
2021/04/22 03:28:47;;;;;;;;;;;19.70;50.70;;;;;;5045786;28;19940;-68
2021/04/22 03:31:13;;;;;;;;;;;19.70;50.70;;;;;;5046241;28;19928;-68
2021/04/22 03:33:38;;;;;;;;;;;19.70;50.80;;;;;;5049647;28;19917;-68
2021/04/22 03:36:04;;;;;;;;;;;19.70;50.70;;;;;;5031802;28;19925;-68
2021/04/22 03:38:30;;;;;;;;;;;19.70;50.70;;;;;;5049910;28;19964;-67
2021/04/22 03:40:55;;;;;;;;;;;19.70;50.70;;;;;;5049979;28;19920;-67
2021/04/22 03:43:21;;;;;;;;;;;19.70;50.70;;;;;;5050015;28;20507;-68
2021/04/22 03:45:46;;;;;;;;;;;19.70;50.70;;;;;;5050180;28;20075;-67
2021/04/22 03:48:12;;;;;;;;;;;19.70;50.70;;;;;;5051060;28;19966;-69
2021/04/22 03:50:37;;;;;;;;;;;19.70;50.60;;;;;;5049083;28;20665;-68
2021/04/22 03:53:02;;;;;;;;;;;19.60;50.60;;;;;;5031602;28;19925;-67
2021/04/22 03:55:28;;;;;;;;;;;19.60;50.50;;;;;;5048963;28;20011;-67
2021/04/22 03:57:53;;;;;;;;;;;19.60;50.50;;;;;;5049551;28;19924;-67
2021/04/22 04:00:19;;;;;;;;;;;19.70;50.60;;;;;;5048270;28;19917;-67
2021/04/22 04:02:45;;;;;;;;;;;19.60;50.50;;;;;;5049324;28;20337;-67
2021/04/22 04:05:11;;;;;;;;;;;19.60;50.50;;;;;;5032143;28;19916;-67
2021/04/22 04:07:36;;;;;;;;;;;19.60;50.50;;;;;;5030874;28;20538;-68
2021/04/22 04:10:02;;;;;;;;;;;19.60;50.50;;;;;;5030313;28;19956;-67
2021/04/22 04:12:27;;;;;;;;;;;19.60;50.40;;;;;;5049005;28;19917;-67
2021/04/22 04:14:53;;;;;;;;;;;19.60;50.40;;;;;;5048526;28;19916;-67
2021/04/22 04:17:18;;;;;;;;;;;19.60;50.50;;;;;;5049336;28;19925;-67
2021/04/22 04:19:44;;;;;;;;;;;19.60;50.40;;;;;;5049044;28;19982;-66
2021/04/22 04:22:09;;;;;;;;;;;19.60;50.40;;;;;;5048851;28;19928;-67
2021/04/22 04:24:35;;;;;;;;;;;19.60;50.40;;;;;;5049608;28;19938;-68
2021/04/22 04:27:00;;;;;;;;;;;19.60;50.30;;;;;;5049115;28;20300;-68
2021/04/22 04:29:26;;;;;;;;;;;19.60;50.20;;;;;;5030372;28;19925;-68
2021/04/22 04:31:51;;;;;;;;;;;19.60;50.20;;;;;;5050776;28;19921;-69
2021/04/22 04:34:17;;;;;;;;;;;19.60;50.20;;;;;;5032369;28;19917;-68
2021/04/22 04:36:46;;;;;;;;;;;19.60;50.20;;;;;;5030573;28;20047;-65
2021/04/22 04:39:12;;;;;;;;;;;19.60;50.20;;;;;;5052916;28;19948;-66
2021/04/22 04:41:37;;;;;;;;;;;19.70;50.20;;;;;;5047975;28;19990;-66
2021/04/22 04:44:03;;;;;;;;;;;19.60;50.20;;;;;;5044339;28;19917;-67
2021/04/22 04:46:29;;;;;;;;;;;19.70;50.30;;;;;;5043321;28;19963;-67
2021/04/22 04:48:55;;;;;;;;;;;19.60;50.40;;;;;;5025275;28;20020;-67
2021/04/22 04:51:20;;;;;;;;;;;19.70;50.50;;;;;;5047981;28;19929;-68
2021/04/22 04:53:47;;;;;;;;;;;19.70;50.70;;;;;;5048119;28;19924;-67
2021/04/22 04:56:17;;;;;;;;;;;19.60;50.90;;;;;;5022726;28;19917;-69
2021/04/22 04:58:42;;;;;;;;;;;19.70;51.10;;;;;;5052122;28;19982;-67
2021/04/22 05:01:08;;;;;;;;;;;19.70;51.20;;;;;;5049477;28;19929;-66
2021/04/22 05:03:33;;;;;;;;;;;19.70;51.10;;;;;;5046867;28;19921;-66
2021/04/22 05:05:58;;;;;;;;;;;19.70;51.30;;;;;;5048079;28;19951;-65
2021/04/22 05:08:24;;;;;;;;;;;19.80;51.30;;;;;;5039941;28;20410;-65
2021/04/22 05:10:49;;;;;;;;;;;19.80;51.30;;;;;;5047888;28;19924;-67
2021/04/22 05:13:15;;;;;;;;;;;19.70;51.10;;;;;;5047907;28;19924;-65
2021/04/22 05:15:41;;;;;;;;;;;19.70;50.90;;;;;;5047591;28;19924;-67
2021/04/22 05:18:06;;;;;;;;;;;19.70;50.90;;;;;;5048001;28;20401;-67
2021/04/22 05:20:32;;;;;;;;;;;19.70;50.80;;;;;;5047010;28;19917;-67
2021/04/22 05:22:57;;;;;;;;;;;19.70;51.00;;;;;;5046352;28;19920;-68
2021/04/22 05:25:23;;;;;;;;;;;19.70;50.90;;;;;;5047661;28;19917;-66
2021/04/22 05:27:48;;;;;;;;;;;19.70;50.80;;;;;;5029087;28;20442;-67
2021/04/22 05:30:14;;;;;;;;;;;19.70;50.70;;;;;;5047411;28;19921;-68
2021/04/22 05:32:39;;;;;;;;;;;19.70;51.50;;;;;;5046259;28;19932;-71
2021/04/22 05:35:05;;;;;;;;;;;19.70;52.20;;;;;;5047791;28;19917;-67
2021/04/22 05:37:30;;;;;;;;;;;19.70;52.30;;;;;;5047189;28;20306;-67
2021/04/22 05:39:56;;;;;;;;;;;19.70;52.30;;;;;;5047900;28;19912;-69
2021/04/22 05:42:21;;;;;;;;;;;19.80;52.50;;;;;;5047770;28;20390;-67
2021/04/22 05:44:47;;;;;;;;;;;19.80;52.60;;;;;;5048075;28;19974;-69
2021/04/22 05:47:12;;;;;;;;;;;19.80;52.70;;;;;;5048216;28;19913;-68
2021/04/22 05:49:38;;;;;;;;;;;19.80;52.80;;;;;;5048371;28;20298;-68
2021/04/22 05:52:03;;;;;;;;;;;19.80;52.70;;;;;;5048934;28;19913;-68
2021/04/22 05:54:29;;;;;;;;;;;19.80;52.70;;;;;;5049126;28;19923;-69
2021/04/22 05:56:54;;;;;;;;;;;19.80;52.80;;;;;;5050506;28;19913;-70
2021/04/22 05:59:20;;;;;;;;;;;19.80;52.90;;;;;;5047992;28;20279;-70
2021/04/22 06:01:45;;;;;;;;;;;19.80;52.80;;;;;;5044633;28;20449;-69
2021/04/22 06:04:10;;;;;;;;;;;19.80;52.80;;;;;;5036143;28;19967;-68
2021/04/22 06:06:36;;;;;;;;;;;19.80;52.80;;;;;;5009398;28;19917;-67
2021/04/22 06:09:01;;;;;;;;;;;19.80;52.80;;;;;;5028158;28;20488;-68
2021/04/22 06:11:27;;;;;;;;;;;19.80;52.80;;;;;;5028185;28;19913;-68
2021/04/22 06:13:52;;;;;;;;;;;19.80;52.80;;;;;;5009767;28;19914;-70
2021/04/22 06:16:18;;;;;;;;;;;19.80;52.90;;;;;;5026944;28;19943;-68
2021/04/22 06:18:43;;;;;;;;;;;19.80;53.00;;;;;;5026756;28;19927;-67
2021/04/22 06:21:11;;;;;;;;;;;19.80;53.30;;;;;;5026718;28;20414;-67
2021/04/22 06:23:36;;;;;;;;;;;19.80;54.10;;;;;;5026516;28;19914;-68
2021/04/22 06:26:02;;;;;;;;;;;19.80;53.60;;;;;;5026964;28;19920;-67
2021/04/22 06:28:27;;;;;;;;;;;19.80;53.50;;;;;;5027131;28;19928;-66
2021/04/22 06:30:53;;;;;;;;;;;19.80;53.60;;;;;;5027642;28;20384;-69
2021/04/22 06:33:18;;;;;;;;;;;19.80;53.50;;;;;;5009550;28;19913;-69
2021/04/22 06:35:44;;;;;;;;;;;19.80;53.20;;;;;;5026844;28;19914;-69
2021/04/22 06:38:09;;;;;;;;;;;19.80;53.10;;;;;;5027057;28;19913;-69
2021/04/22 06:40:35;;;;;;;;;;;19.80;53.00;;;;;;5025993;28;19913;-68
2021/04/22 06:43:00;;;;;;;;;;;19.80;52.80;;;;;;5026803;28;19936;-70
2021/04/22 06:45:26;;;;;;;;;;;19.90;52.70;;;;;;5025896;28;19917;-68
2021/04/22 06:47:51;;;;;;;;;;;19.80;52.50;;;;;;5025891;28;20269;-68
2021/04/22 06:50:17;;;;;;;;;;;19.80;51.80;;;;;;5007927;28;19975;-68
2021/04/22 06:52:43;;;;;;;;;;;19.80;51.50;;;;;;5026765;28;20326;-68
2021/04/22 06:55:10;;;;;;;;;;;19.80;51.30;;;;;;5026540;28;19913;-68
2021/04/22 06:57:36;;;;;;;;;;;19.80;51.20;;;;;;5026536;28;20554;-68
2021/04/22 07:00:04;;;;;;;;;;;19.70;51.20;;;;;;5026558;28;19914;-69
2021/04/22 07:02:29;;;;;;;;;;;19.80;51.20;;;;;;5026567;28;19913;-69
2021/04/22 07:04:55;;;;;;;;;;;19.70;51.10;;;;;;5025775;28;19920;-68
2021/04/22 07:07:20;;;;;;;;;;;19.70;51.00;;;;;;5026570;28;20375;-68
2021/04/22 07:09:46;;;;;;;;;;;19.70;51.10;;;;;;5025888;28;19921;-69
2021/04/22 07:12:11;;;;;;;;;;;19.70;51.00;;;;;;5026567;28;19921;-69
2021/04/22 07:14:36;;;;;;;;;;;19.70;51.00;;;;;;5008692;28;19943;-69
2021/04/22 07:17:02;;;;;;;;;;;19.70;51.10;;;;;;5026217;28;20327;-69
2021/04/22 07:19:27;;;;;;;;;;;19.70;51.10;;;;;;5025901;28;19913;-69
2021/04/22 07:21:54;;;;;;;;;;;19.70;51.10;;;;;;5008352;28;19913;-69
2021/04/22 07:24:19;;;;;;;;;;;19.70;51.10;;;;;;5026500;28;19913;-68
2021/04/22 07:26:44;;;;;;;;;;;19.70;51.10;;;;;;5026165;28;19913;-68
2021/04/22 07:29:10;;;;;;;;;;;19.70;51.00;;;;;;5025568;28;19917;-68
2021/04/22 07:31:35;;;;;;;;;;;19.70;51.00;;;;;;5026051;28;19925;-68
2021/04/22 07:34:01;;;;;;;;;;;19.70;51.00;;;;;;5026429;28;19913;-69
2021/04/22 07:36:26;;;;;;;;;;;19.70;51.00;;;;;;5002748;28;19927;-69
2021/04/22 07:38:52;;;;;;;;;;;19.60;50.90;;;;;;5037869;28;19912;-69
2021/04/22 07:41:17;;;;;;;;;;;19.70;50.90;;;;;;5046797;28;19913;-69
2021/04/22 07:43:43;;;;;;;;;;;19.70;50.90;;;;;;5048318;28;19921;-69
2021/04/22 07:46:08;;;;;;;;;;;19.70;51.00;;;;;;5046735;28;19923;-69
2021/04/22 07:48:34;;;;;;;;;;;19.60;50.80;;;;;;5047146;28;19913;-69
2021/04/22 07:51:00;;;;;;;;;;;19.60;50.80;;;;;;5049512;28;19921;-69
2021/04/22 07:53:25;;;;;;;;;;;19.60;50.80;;;;;;5047616;28;19966;-69
2021/04/22 07:55:51;;;;;;;;;;;19.60;50.80;;;;;;5028941;28;19932;-69
2021/04/22 07:58:16;;;;;;;;;;;19.60;50.80;;;;;;5028441;28;20642;-68
2021/04/22 08:00:42;;;;;;;;;;;19.60;50.80;;;;;;5046040;28;19928;-69
2021/04/22 08:03:08;;;;;;;;;;;19.60;50.80;;;;;;5028376;28;20371;-68
2021/04/22 08:05:36;;;;;;;;;;;19.60;50.80;;;;;;5045533;28;19943;-69
2021/04/22 08:08:01;;;;;;;;;;;19.60;50.80;;;;;;5045579;28;19966;-69
2021/04/22 08:10:31;;;;;;;;;;;19.60;50.80;;;;;;5045750;28;19917;-69
2021/04/22 08:12:57;;;;;;;;;;;19.60;50.80;;;;;;5046050;28;19919;-69
2021/04/22 08:15:22;;;;;;;;;;;19.60;50.80;;;;;;5046076;28;19913;-68
2021/04/22 08:17:48;;;;;;;;;;;19.60;50.80;;;;;;5047945;28;19935;-69
2021/04/22 08:20:15;;;;;;;;;;;19.50;50.70;;;;;;5049527;28;20096;-68
2021/04/22 08:22:40;;;;;;;;;;;19.50;50.80;;;;;;5050190;28;20445;-69
2021/04/22 08:25:06;;;;;;;;;;;19.60;50.80;;;;;;5049880;28;19917;-68
2021/04/22 08:27:32;;;;;;;;;;;19.60;50.80;;;;;;5050290;28;19919;-69
2021/04/22 08:29:57;;;;;;;;;;;19.60;50.80;;;;;;5051027;28;19917;-69
2021/04/22 08:32:23;;;;;;;;;;;19.60;50.80;;;;;;5053122;28;19971;-69
2021/04/22 08:34:48;;;;;;;;;;;19.50;50.80;;;;;;5052573;28;20454;-69
2021/04/22 08:37:14;;;;;;;;;;;19.50;50.80;;;;;;5051168;28;19960;-68
2021/04/22 08:39:39;;;;;;;;;;;19.60;50.80;;;;;;5049142;28;19920;-68
2021/04/22 08:42:05;;;;;;;;;;;19.60;50.80;;;;;;5048605;28;19920;-69
2021/04/22 08:44:30;;;;;;;;;;;19.50;50.80;;;;;;5049387;28;20374;-69
2021/04/22 08:46:56;;;;;;;;;;;19.60;50.80;;;;;;5048886;28;19917;-68
2021/04/22 08:49:21;;;;;;;;;;;19.50;50.70;;;;;;5049242;28;19927;-68
2021/04/22 08:51:47;;;;;;;;;;;19.50;50.70;;;;;;5048852;28;19921;-68
2021/04/22 08:54:14;;;;;;;;;;;19.60;50.70;;;;;;5048445;28;20522;-68
2021/04/22 08:56:39;;;;;;;;;;;19.50;50.70;;;;;;5048914;28;20330;-68
2021/04/22 08:59:05;;;;;;;;;;;19.50;50.70;;;;;;5049080;28;19919;-68
2021/04/22 09:01:32;;;;;;;;;;;19.50;50.70;;;;;;5048474;28;20087;-68
2021/04/22 09:03:57;;;;;;;;;;;19.50;50.70;;;;;;5048709;28;20015;-68
2021/04/22 09:06:23;;;;;;;;;;;19.60;50.70;;;;;;5048976;28;20051;-68
2021/04/22 09:08:51;;;;;;;;;;;19.50;50.70;;;;;;5048841;28;20279;-68
2021/04/22 09:11:21;;;;;;;;;;;19.50;50.70;;;;;;5048480;28;19916;-68
2021/04/22 09:13:47;;;;;;;;;;;19.50;50.60;;;;;;5049255;28;19999;-68
2021/04/22 09:16:14;;;;;;;;;;;19.50;50.70;;;;;;5049649;28;20023;-68
2021/04/22 09:18:44;;;;;;;;;;;19.50;50.60;;;;;;5037887;28;19939;-68
2021/04/22 09:21:36;;;;;;;;;;;19.50;50.70;;;;;;5040023;28;20398;-68
2021/04/22 09:24:10;;;;;;;;;;;19.50;50.60;;;;;;5046887;28;19917;-68
2021/04/22 09:26:44;;;;;;;;;;;19.50;50.60;;;;;;5049252;28;20337;-68
2021/04/22 09:29:10;;;;;;;;;;;19.50;50.60;;;;;;5047249;28;19943;-67
2021/04/22 09:31:36;;;;;;;;;;;19.50;50.70;;;;;;5048138;28;20010;-68
2021/04/22 09:34:03;;;;;;;;;;;19.50;50.70;;;;;;5048195;28;20408;-68
2021/04/22 09:36:37;;;;;;;;;;;19.50;50.70;;;;;;5048122;28;19913;-68
2021/04/22 09:39:03;;;;;;;;;;;19.50;50.60;;;;;;5047896;28;19939;-68
2021/04/22 09:41:28;;;;;;;;;;;19.50;50.70;;;;;;5047521;28;19917;-68
2021/04/22 09:44:00;;;;;;;;;;;19.50;50.70;;;;;;5048752;28;19913;-68
2021/04/22 09:46:25;;;;;;;;;;;19.50;50.70;;;;;;5047441;28;21396;-68
2021/04/22 09:48:51;;;;;;;;;;;19.50;50.70;;;;;;5048115;28;19913;-67
2021/04/22 09:51:29;;;;;;;;;;;19.50;50.70;;;;;;5047896;28;20517;-68
2021/04/22 09:54:09;;;;;;;;;;;19.50;50.70;;;;;;5048183;28;19917;-68
2021/04/22 09:56:39;;;;;;;;;;;19.50;50.70;;;;;;5047558;28;19917;-68
2021/04/22 09:59:05;;;;;;;;;;;19.50;50.80;;;;;;5047687;28;19955;-67
2021/04/22 10:01:31;;;;;;;;;;;19.50;50.80;;;;;;5047372;28;19913;-66
2021/04/22 10:03:57;;;;;;;;;;;19.50;50.80;;;;;;5029992;28;19913;-68
2021/04/22 10:06:22;;;;;;;;;;;19.50;50.80;;;;;;5047788;28;19991;-67
2021/04/22 10:08:48;;;;;;;;;;;19.50;50.80;;;;;;5029483;28;19913;-67
2021/04/22 10:11:13;;;;;;;;;;;19.50;50.80;;;;;;5047584;28;20362;-68
2021/04/22 10:13:57;;;;;;;;;;;19.50;50.80;;;;;;5047240;28;19932;-68
2021/04/22 10:16:32;;;;;;;;;;;19.50;50.70;;;;;;5047025;28;19913;-67
2021/04/22 10:18:58;;;;;;;;;;;19.50;50.70;;;;;;5046860;28;19920;-68
2021/04/22 10:21:24;;;;;;;;;;;19.50;50.80;;;;;;5047598;28;19913;-68
2021/04/22 10:23:51;;;;;;;;;;;19.50;51.00;;;;;;5047311;28;19919;-68
2021/04/22 10:26:19;;;;;;;;;;;19.50;50.80;;;;;;5047312;28;20055;-68
2021/04/22 10:28:45;;;;;;;;;;;19.50;50.80;;;;;;5046942;28;19947;-68
2021/04/22 10:31:10;;;;;;;;;;;19.40;50.80;;;;;;5045547;28;20004;-68
2021/04/22 10:33:36;;;;;;;;;;;19.50;50.80;;;;;;5047273;28;19913;-68
2021/04/22 10:36:01;;;;;;;;;;;19.50;50.80;;;;;;5046537;28;20291;-68
2021/04/22 10:38:27;;;;;;;;;;;19.40;50.70;;;;;;5047296;28;19920;-68
2021/04/22 10:40:52;;;;;;;;;;;19.50;50.80;;;;;;5046495;28;19920;-68
2021/04/22 10:43:22;;;;;;;;;;;19.50;50.80;;;;;;5028624;28;19998;-68
2021/04/22 10:45:47;;;;;;;;;;;19.50;50.80;;;;;;5046530;28;19924;-68
2021/04/22 10:48:13;;;;;;;;;;;19.50;50.80;;;;;;5046834;28;19913;-68
2021/04/22 10:50:42;;;;;;;;;;;19.40;50.70;;;;;;5046484;28;19940;-68
2021/04/22 10:53:09;;;;;;;;;;;19.40;50.70;;;;;;5028779;28;20298;-67
2021/04/22 10:55:35;;;;;;;;;;;19.40;50.80;;;;;;5028740;28;20284;-67
2021/04/22 10:58:19;;;;;;;;;;;19.40;50.80;;;;;;5046705;28;19927;-67
2021/04/22 11:00:54;;;;;;;;;;;19.50;50.80;;;;;;5047632;28;19920;-67
2021/04/22 11:03:24;;;;;;;;;;;19.40;50.80;;;;;;5029683;28;20004;-67
2021/04/22 11:05:53;;;;;;;;;;;19.50;50.90;;;;;;5046910;28;19920;-68
2021/04/22 11:08:28;;;;;;;;;;;19.40;50.80;;;;;;5047550;28;20017;-67
2021/04/22 11:10:55;;;;;;;;;;;19.40;50.80;;;;;;5031157;28;20644;-68
2021/04/22 11:13:25;;;;;;;;;;;19.40;50.80;;;;;;5032929;28;19913;-67
2021/04/22 11:15:54;;;;;;;;;;;19.40;50.80;;;;;;5046281;28;19916;-68
2021/04/22 11:18:19;;;;;;;;;;;19.40;50.80;;;;;;5046303;28;19913;-67
2021/04/22 11:20:45;;;;;;;;;;;19.40;50.80;;;;;;5046133;28;19920;-68
2021/04/22 11:23:19;;;;;;;;;;;19.50;50.80;;;;;;5045406;28;19917;-68
2021/04/22 11:25:48;;;;;;;;;;;19.40;50.80;;;;;;5046255;28;20423;-68
2021/04/22 11:28:16;;;;;;;;;;;19.40;50.80;;;;;;5046285;28;19919;-68
2021/04/22 11:30:41;;;;;;;;;;;19.40;50.90;;;;;;5027162;28;19924;-68
2021/04/22 11:33:07;;;;;;;;;;;19.40;50.80;;;;;;5046344;28;19913;-68
2021/04/22 11:35:32;;;;;;;;;;;19.40;50.80;;;;;;5046328;28;20367;-68
2021/04/22 11:38:07;;;;;;;;;;;19.40;50.80;;;;;;5046487;28;19913;-68
2021/04/22 11:40:39;;;;;;;;;;;19.40;50.80;;;;;;5046077;28;20020;-68
2021/04/22 11:43:05;;;;;;;;;;;19.40;50.90;;;;;;5045675;28;19920;-68
2021/04/22 11:45:31;;;;;;;;;;;19.40;50.90;;;;;;5046372;28;19913;-69
2021/04/22 11:47:57;;;;;;;;;;;19.40;50.90;;;;;;5046384;28;20637;-69
2021/04/22 11:50:24;;;;;;;;;;;19.40;50.90;;;;;;5045821;28;19916;-68
2021/04/22 11:52:55;;;;;;;;;;;19.40;50.90;;;;;;5048518;28;19920;-69
2021/04/22 11:55:25;;;;;;;;;;;19.40;50.90;;;;;;5049700;28;19995;-68
2021/04/22 11:57:53;;;;;;;;;;;19.40;50.90;;;;;;5049087;28;19921;-69
2021/04/22 12:00:18;;;;;;;;;;;19.40;50.80;;;;;;5049832;28;20008;-69
2021/04/22 12:02:45;;;;;;;;;;;19.40;50.90;;;;;;5049531;28;19995;-69
2021/04/22 12:05:14;;;;;;;;;;;19.40;50.90;;;;;;5049886;28;20015;-69
2021/04/22 12:07:39;;;;;;;;;;;19.40;50.90;;;;;;5049258;28;19959;-69
2021/04/22 12:10:05;;;;;;;;;;;19.40;51.00;;;;;;5031748;28;19917;-69
2021/04/22 12:12:31;;;;;;;;;;;19.40;51.00;;;;;;5049570;28;20368;-69
2021/04/22 12:14:57;;;;;;;;;;;19.40;51.00;;;;;;5049081;28;19920;-69
2021/04/22 12:17:24;;;;;;;;;;;19.40;51.00;;;;;;5047333;28;19921;-68
2021/04/22 12:19:50;;;;;;;;;;;19.40;51.00;;;;;;5047532;28;20304;-68
2021/04/22 12:22:24;;;;;;;;;;;19.40;51.00;;;;;;5029932;28;19920;-68
2021/04/22 12:24:49;;;;;;;;;;;19.40;51.00;;;;;;5047738;28;20284;-68
2021/04/22 12:27:24;;;;;;;;;;;19.40;51.00;;;;;;5047100;28;19913;-69
2021/04/22 12:29:50;;;;;;;;;;;19.40;51.10;;;;;;5047260;28;21192;-68
2021/04/22 12:32:16;;;;;;;;;;;19.30;51.10;;;;;;5048932;28;20318;-69
2021/04/22 12:34:41;;;;;;;;;;;19.40;51.20;;;;;;5049385;28;19919;-68
2021/04/22 12:37:07;;;;;;;;;;;19.40;51.20;;;;;;5049029;28;19923;-68
2021/04/22 12:39:46;;;;;;;;;;;19.30;51.10;;;;;;5049201;28;19913;-68
2021/04/22 12:42:13;;;;;;;;;;;19.30;51.10;;;;;;5047974;28;19920;-68
2021/04/22 12:44:39;;;;;;;;;;;19.40;51.20;;;;;;5048337;28;19948;-68
2021/04/22 12:47:05;;;;;;;;;;;19.40;51.10;;;;;;5048748;28;19921;-69
2021/04/22 12:49:31;;;;;;;;;;;19.40;51.10;;;;;;5049142;28;19924;-69
2021/04/22 12:51:56;;;;;;;;;;;19.30;51.00;;;;;;5048711;28;19912;-69
2021/04/22 12:54:24;;;;;;;;;;;19.40;51.10;;;;;;5048628;28;19920;-68
2021/04/22 12:56:49;;;;;;;;;;;19.30;51.00;;;;;;5047753;28;19913;-68
2021/04/22 12:59:15;;;;;;;;;;;19.30;51.00;;;;;;5048554;28;19917;-69
2021/04/22 13:01:40;;;;;;;;;;;19.30;51.00;;;;;;5030815;28;19919;-68
2021/04/22 13:04:06;;;;;;;;;;;19.30;51.00;;;;;;5047263;28;19917;-68
2021/04/22 13:06:31;;;;;;;;;;;19.30;51.00;;;;;;5030848;28;19913;-68
2021/04/22 13:08:58;;;;;;;;;;;19.30;51.00;;;;;;5048068;28;20046;-68
2021/04/22 13:11:30;;;;;;;;;;;19.40;51.00;;;;;;5030591;28;19963;-68
2021/04/22 13:14:01;;;;;;;;;;;19.30;50.90;;;;;;5048416;28;19913;-69
2021/04/22 13:16:27;;;;;;;;;;;19.40;51.00;;;;;;5048362;28;19967;-68
2021/04/22 13:18:59;;;;;;;;;;;19.30;50.90;;;;;;5048652;28;19967;-68
2021/04/22 13:21:26;;;;;;;;;;;19.30;50.90;;;;;;5048255;28;19920;-68
2021/04/22 13:23:51;;;;;;;;;;;19.30;51.00;;;;;;5048876;28;19912;-68
2021/04/22 13:26:29;;;;;;;;;;;19.30;50.90;;;;;;5049147;28;19927;-68
2021/04/22 13:29:05;;;;;;;;;;;19.30;51.00;;;;;;5049052;28;19919;-68
2021/04/22 13:31:31;;;;;;;;;;;19.30;51.00;;;;;;5047593;28;19921;-68
2021/04/22 13:34:11;;;;;;;;;;;19.30;51.00;;;;;;5029180;28;19913;-68
2021/04/22 13:36:40;;;;;;;;;;;19.40;51.00;;;;;;5046106;28;20338;-68
2021/04/22 13:39:06;;;;;;;;;;;19.30;51.00;;;;;;5046888;28;19940;-68
2021/04/22 13:41:32;;;;;;;;;;;19.40;51.00;;;;;;5047073;28;19959;-66
2021/04/22 13:43:58;;;;;;;;;;;19.30;51.00;;;;;;5029303;28;19939;-68
2021/04/22 13:46:23;;;;;;;;;;;19.30;51.00;;;;;;5047348;28;20318;-67
2021/04/22 13:48:53;;;;;;;;;;;19.30;51.00;;;;;;5049802;28;19912;-68
2021/04/22 13:51:20;;;;;;;;;;;19.30;51.00;;;;;;5050638;28;19917;-68
2021/04/22 13:53:46;;;;;;;;;;;19.30;51.00;;;;;;5027856;28;19971;-68
2021/04/22 13:56:11;;;;;;;;;;;19.30;51.00;;;;;;5044506;28;19913;-67
2021/04/22 13:58:37;;;;;;;;;;;19.30;51.10;;;;;;5046223;28;19924;-67
2021/04/22 14:01:03;;;;;;;;;;;19.30;51.10;;;;;;5047291;28;20350;-69
2021/04/22 14:03:31;;;;;;;;;;;19.30;51.00;;;;;;5028666;28;19917;-69
2021/04/22 14:05:57;;;;;;;;;;;19.40;51.10;;;;;;5046836;28;19917;-68
2021/04/22 14:08:29;;;;;;;;;;;19.30;51.00;;;;;;5045773;28;19913;-69
2021/04/22 14:10:59;;;;;;;;;;;19.40;51.00;;;;;;5045593;28;20042;-67
2021/04/22 14:13:26;;;;;;;;;;;19.40;51.60;;;;;;5046062;28;20543;-67